sensor_id;sensor_type;location;lat;lon;timestamp;P1;durP1;ratioP1;P2;durP2;ratioP2
14121;SDS011;7139;48.114;11.442;2022-11-20T00:02:17;2.53;;;2.20;;
14121;SDS011;7139;48.114;11.442;2022-11-20T00:04:44;3.63;;;2.70;;
14121;SDS011;7139;48.114;11.442;2022-11-20T00:07:12;3.10;;;2.80;;
14121;SDS011;7139;48.114;11.442;2022-11-20T00:09:39;3.10;;;2.80;;
14121;SDS011;7139;48.114;11.442;2022-11-20T00:12:06;2.60;;;2.40;;
14121;SDS011;7139;48.114;11.442;2022-11-20T00:14:33;2.77;;;2.57;;
14121;SDS011;7139;48.114;11.442;2022-11-20T00:16:59;3.10;;;2.80;;
14121;SDS011;7139;48.114;11.442;2022-11-20T00:19:26;2.67;;;2.43;;
14121;SDS011;7139;48.114;11.442;2022-11-20T00:21:53;2.87;;;2.50;;
14121;SDS011;7139;48.114;11.442;2022-11-20T00:24:21;3.03;;;2.73;;
14121;SDS011;7139;48.114;11.442;2022-11-20T00:26:48;3.20;;;2.73;;
14121;SDS011;7139;48.114;11.442;2022-11-20T00:29:15;2.70;;;2.40;;
14121;SDS011;7139;48.114;11.442;2022-11-20T00:31:42;2.80;;;2.60;;
14121;SDS011;7139;48.114;11.442;2022-11-20T00:34:09;3.30;;;2.93;;
14121;SDS011;7139;48.114;11.442;2022-11-20T00:36:36;3.03;;;2.67;;
14121;SDS011;7139;48.114;11.442;2022-11-20T00:39:02;2.63;;;2.43;;
14121;SDS011;7139;48.114;11.442;2022-11-20T00:41:31;3.17;;;2.63;;
14121;SDS011;7139;48.114;11.442;2022-11-20T00:43:57;3.47;;;2.80;;
14121;SDS011;7139;48.114;11.442;2022-11-20T00:46:25;2.60;;;2.40;;
14121;SDS011;7139;48.114;11.442;2022-11-20T00:48:53;3.90;;;3.10;;
14121;SDS011;7139;48.114;11.442;2022-11-20T00:51:20;2.83;;;2.57;;
14121;SDS011;7139;48.114;11.442;2022-11-20T00:53:48;3.87;;;2.93;;
14121;SDS011;7139;48.114;11.442;2022-11-20T00:56:16;2.67;;;2.43;;
14121;SDS011;7139;48.114;11.442;2022-11-20T00:58:45;3.13;;;2.60;;
14121;SDS011;7139;48.114;11.442;2022-11-20T01:01:14;3.03;;;2.73;;
14121;SDS011;7139;48.114;11.442;2022-11-20T01:03:43;3.00;;;2.60;;
14121;SDS011;7139;48.114;11.442;2022-11-20T01:06:12;2.93;;;2.50;;
14121;SDS011;7139;48.114;11.442;2022-11-20T01:08:40;2.60;;;2.40;;
14121;SDS011;7139;48.114;11.442;2022-11-20T01:11:08;3.43;;;2.70;;
14121;SDS011;7139;48.114;11.442;2022-11-20T01:13:37;3.30;;;2.93;;
14121;SDS011;7139;48.114;11.442;2022-11-20T01:16:06;3.03;;;2.60;;
14121;SDS011;7139;48.114;11.442;2022-11-20T01:18:34;3.67;;;2.50;;
14121;SDS011;7139;48.114;11.442;2022-11-20T01:21:02;3.13;;;2.83;;
14121;SDS011;7139;48.114;11.442;2022-11-20T01:23:31;2.83;;;2.60;;
14121;SDS011;7139;48.114;11.442;2022-11-20T01:26:02;2.90;;;2.60;;
14121;SDS011;7139;48.114;11.442;2022-11-20T01:28:30;3.43;;;2.20;;
14121;SDS011;7139;48.114;11.442;2022-11-20T01:30:58;3.27;;;2.97;;
14121;SDS011;7139;48.114;11.442;2022-11-20T01:33:27;3.07;;;2.77;;
14121;SDS011;7139;48.114;11.442;2022-11-20T01:36:02;2.73;;;2.40;;
14121;SDS011;7139;48.114;11.442;2022-11-20T01:38:30;2.77;;;2.57;;
14121;SDS011;7139;48.114;11.442;2022-11-20T01:40:57;3.53;;;3.20;;
14121;SDS011;7139;48.114;11.442;2022-11-20T01:43:24;3.50;;;2.90;;
14121;SDS011;7139;48.114;11.442;2022-11-20T01:46:01;4.57;;;2.77;;
14121;SDS011;7139;48.114;11.442;2022-11-20T01:48:35;2.97;;;2.67;;
14121;SDS011;7139;48.114;11.442;2022-11-20T01:51:06;3.33;;;2.90;;
14121;SDS011;7139;48.114;11.442;2022-11-20T01:53:39;3.10;;;2.67;;
14121;SDS011;7139;48.114;11.442;2022-11-20T01:56:08;3.07;;;2.70;;
14121;SDS011;7139;48.114;11.442;2022-11-20T01:58:38;3.43;;;3.10;;
14121;SDS011;7139;48.114;11.442;2022-11-20T02:01:08;3.20;;;2.67;;
14121;SDS011;7139;48.114;11.442;2022-11-20T02:03:36;3.47;;;3.17;;
14121;SDS011;7139;48.114;11.442;2022-11-20T02:06:04;3.30;;;2.77;;
14121;SDS011;7139;48.114;11.442;2022-11-20T02:08:36;2.63;;;2.43;;
14121;SDS011;7139;48.114;11.442;2022-11-20T02:11:04;3.97;;;3.00;;
14121;SDS011;7139;48.114;11.442;2022-11-20T02:13:31;3.00;;;2.70;;
14121;SDS011;7139;48.114;11.442;2022-11-20T02:16:11;3.10;;;2.90;;
14121;SDS011;7139;48.114;11.442;2022-11-20T02:18:42;2.97;;;2.67;;
14121;SDS011;7139;48.114;11.442;2022-11-20T02:21:13;3.57;;;2.70;;
14121;SDS011;7139;48.114;11.442;2022-11-20T02:23:54;3.57;;;2.90;;
14121;SDS011;7139;48.114;11.442;2022-11-20T02:26:30;3.97;;;3.13;;
14121;SDS011;7139;48.114;11.442;2022-11-20T02:28:58;3.13;;;2.83;;
14121;SDS011;7139;48.114;11.442;2022-11-20T02:31:26;3.20;;;2.77;;
14121;SDS011;7139;48.114;11.442;2022-11-20T02:33:54;3.27;;;2.97;;
14121;SDS011;7139;48.114;11.442;2022-11-20T02:36:22;3.30;;;3.00;;
14121;SDS011;7139;48.114;11.442;2022-11-20T02:38:52;3.20;;;2.90;;
14121;SDS011;7139;48.114;11.442;2022-11-20T02:41:20;4.40;;;3.20;;
14121;SDS011;7139;48.114;11.442;2022-11-20T02:43:47;3.33;;;3.07;;
14121;SDS011;7139;48.114;11.442;2022-11-20T02:46:14;3.30;;;3.00;;
14121;SDS011;7139;48.114;11.442;2022-11-20T02:48:41;3.60;;;3.30;;
14121;SDS011;7139;48.114;11.442;2022-11-20T02:51:07;3.43;;;3.13;;
14121;SDS011;7139;48.114;11.442;2022-11-20T02:53:34;3.33;;;3.00;;
14121;SDS011;7139;48.114;11.442;2022-11-20T02:56:01;3.10;;;2.80;;
14121;SDS011;7139;48.114;11.442;2022-11-20T02:58:29;3.07;;;2.80;;
14121;SDS011;7139;48.114;11.442;2022-11-20T03:00:56;3.50;;;3.20;;
14121;SDS011;7139;48.114;11.442;2022-11-20T03:03:22;3.20;;;2.90;;
14121;SDS011;7139;48.114;11.442;2022-11-20T03:05:49;3.87;;;3.17;;
14121;SDS011;7139;48.114;11.442;2022-11-20T03:08:16;3.30;;;3.00;;
14121;SDS011;7139;48.114;11.442;2022-11-20T03:10:43;3.70;;;2.80;;
14121;SDS011;7139;48.114;11.442;2022-11-20T03:13:09;2.73;;;2.50;;
14121;SDS011;7139;48.114;11.442;2022-11-20T03:15:37;3.13;;;2.80;;
14121;SDS011;7139;48.114;11.442;2022-11-20T03:18:05;3.13;;;2.90;;
14121;SDS011;7139;48.114;11.442;2022-11-20T03:20:32;3.37;;;3.07;;
14121;SDS011;7139;48.114;11.442;2022-11-20T03:22:59;3.20;;;2.90;;
14121;SDS011;7139;48.114;11.442;2022-11-20T03:25:26;3.23;;;2.90;;
14121;SDS011;7139;48.114;11.442;2022-11-20T03:27:53;4.50;;;3.53;;
14121;SDS011;7139;48.114;11.442;2022-11-20T03:30:20;3.90;;;3.23;;
14121;SDS011;7139;48.114;11.442;2022-11-20T03:32:48;4.27;;;3.20;;
14121;SDS011;7139;48.114;11.442;2022-11-20T03:35:18;3.50;;;3.20;;
14121;SDS011;7139;48.114;11.442;2022-11-20T03:37:45;4.17;;;3.47;;
14121;SDS011;7139;48.114;11.442;2022-11-20T03:40:12;4.07;;;3.27;;
14121;SDS011;7139;48.114;11.442;2022-11-20T03:42:39;3.93;;;2.93;;
14121;SDS011;7139;48.114;11.442;2022-11-20T03:45:11;3.93;;;3.30;;
14121;SDS011;7139;48.114;11.442;2022-11-20T03:47:38;3.30;;;3.00;;
14121;SDS011;7139;48.114;11.442;2022-11-20T03:50:07;3.33;;;3.03;;
14121;SDS011;7139;48.114;11.442;2022-11-20T03:52:35;3.27;;;2.70;;
14121;SDS011;7139;48.114;11.442;2022-11-20T03:55:02;3.50;;;3.20;;
14121;SDS011;7139;48.114;11.442;2022-11-20T03:57:29;3.77;;;3.37;;
14121;SDS011;7139;48.114;11.442;2022-11-20T03:59:56;3.47;;;3.17;;
14121;SDS011;7139;48.114;11.442;2022-11-20T04:02:22;3.27;;;2.97;;
14121;SDS011;7139;48.114;11.442;2022-11-20T04:04:49;3.33;;;2.90;;
14121;SDS011;7139;48.114;11.442;2022-11-20T04:07:17;3.53;;;3.17;;
14121;SDS011;7139;48.114;11.442;2022-11-20T04:09:44;3.90;;;2.90;;
14121;SDS011;7139;48.114;11.442;2022-11-20T04:12:11;3.57;;;2.50;;
14121;SDS011;7139;48.114;11.442;2022-11-20T04:14:37;3.23;;;2.93;;
14121;SDS011;7139;48.114;11.442;2022-11-20T04:17:04;2.90;;;2.70;;
14121;SDS011;7139;48.114;11.442;2022-11-20T04:19:31;3.43;;;2.80;;
14121;SDS011;7139;48.114;11.442;2022-11-20T04:21:58;3.53;;;2.53;;
14121;SDS011;7139;48.114;11.442;2022-11-20T04:24:26;3.27;;;2.97;;
14121;SDS011;7139;48.114;11.442;2022-11-20T04:26:53;3.00;;;2.80;;
14121;SDS011;7139;48.114;11.442;2022-11-20T04:29:19;3.73;;;3.10;;
14121;SDS011;7139;48.114;11.442;2022-11-20T04:31:46;2.93;;;2.67;;
14121;SDS011;7139;48.114;11.442;2022-11-20T04:34:13;3.13;;;2.73;;
14121;SDS011;7139;48.114;11.442;2022-11-20T04:36:39;3.53;;;3.13;;
14121;SDS011;7139;48.114;11.442;2022-11-20T04:39:11;3.20;;;3.00;;
14121;SDS011;7139;48.114;11.442;2022-11-20T04:41:40;2.90;;;2.70;;
14121;SDS011;7139;48.114;11.442;2022-11-20T04:44:07;3.63;;;2.90;;
14121;SDS011;7139;48.114;11.442;2022-11-20T04:46:35;5.83;;;3.23;;
14121;SDS011;7139;48.114;11.442;2022-11-20T04:49:04;3.63;;;3.33;;
14121;SDS011;7139;48.114;11.442;2022-11-20T04:51:31;3.67;;;3.33;;
14121;SDS011;7139;48.114;11.442;2022-11-20T04:53:58;3.60;;;2.97;;
14121;SDS011;7139;48.114;11.442;2022-11-20T04:56:24;3.87;;;3.40;;
14121;SDS011;7139;48.114;11.442;2022-11-20T04:58:53;3.37;;;3.07;;
14121;SDS011;7139;48.114;11.442;2022-11-20T05:01:20;3.53;;;3.23;;
14121;SDS011;7139;48.114;11.442;2022-11-20T05:03:48;3.80;;;3.50;;
14121;SDS011;7139;48.114;11.442;2022-11-20T05:06:16;3.97;;;3.57;;
14121;SDS011;7139;48.114;11.442;2022-11-20T05:08:44;3.70;;;3.40;;
14121;SDS011;7139;48.114;11.442;2022-11-20T05:11:11;3.73;;;3.43;;
14121;SDS011;7139;48.114;11.442;2022-11-20T05:13:40;3.87;;;3.47;;
14121;SDS011;7139;48.114;11.442;2022-11-20T05:16:09;3.80;;;3.40;;
14121;SDS011;7139;48.114;11.442;2022-11-20T05:18:37;3.63;;;3.30;;
14121;SDS011;7139;48.114;11.442;2022-11-20T05:21:05;3.73;;;3.43;;
14121;SDS011;7139;48.114;11.442;2022-11-20T05:23:33;3.63;;;3.33;;
14121;SDS011;7139;48.114;11.442;2022-11-20T05:26:00;3.83;;;3.50;;
14121;SDS011;7139;48.114;11.442;2022-11-20T05:28:28;4.13;;;3.10;;
14121;SDS011;7139;48.114;11.442;2022-11-20T05:30:56;3.90;;;3.30;;
14121;SDS011;7139;48.114;11.442;2022-11-20T05:33:31;4.43;;;3.20;;
14121;SDS011;7139;48.114;11.442;2022-11-20T05:35:58;5.03;;;3.53;;
14121;SDS011;7139;48.114;11.442;2022-11-20T05:38:25;4.80;;;3.53;;
14121;SDS011;7139;48.114;11.442;2022-11-20T05:40:51;4.37;;;3.30;;
14121;SDS011;7139;48.114;11.442;2022-11-20T05:43:18;3.57;;;3.10;;
14121;SDS011;7139;48.114;11.442;2022-11-20T05:45:51;5.00;;;3.50;;
14121;SDS011;7139;48.114;11.442;2022-11-20T05:48:18;3.93;;;3.43;;
14121;SDS011;7139;48.114;11.442;2022-11-20T05:50:46;3.30;;;3.10;;
14121;SDS011;7139;48.114;11.442;2022-11-20T05:53:13;4.83;;;3.50;;
14121;SDS011;7139;48.114;11.442;2022-11-20T05:55:40;3.60;;;3.30;;
14121;SDS011;7139;48.114;11.442;2022-11-20T05:58:07;3.87;;;3.37;;
14121;SDS011;7139;48.114;11.442;2022-11-20T06:00:33;3.20;;;3.00;;
14121;SDS011;7139;48.114;11.442;2022-11-20T06:03:00;4.20;;;3.20;;
14121;SDS011;7139;48.114;11.442;2022-11-20T06:05:27;3.93;;;3.20;;
14121;SDS011;7139;48.114;11.442;2022-11-20T06:07:55;5.10;;;3.20;;
14121;SDS011;7139;48.114;11.442;2022-11-20T06:10:22;3.87;;;3.43;;
14121;SDS011;7139;48.114;11.442;2022-11-20T06:12:49;4.43;;;3.17;;
14121;SDS011;7139;48.114;11.442;2022-11-20T06:15:15;3.33;;;3.03;;
14121;SDS011;7139;48.114;11.442;2022-11-20T06:17:42;3.43;;;3.13;;
14121;SDS011;7139;48.114;11.442;2022-11-20T06:20:09;3.50;;;3.20;;
14121;SDS011;7139;48.114;11.442;2022-11-20T06:22:36;3.30;;;3.00;;
14121;SDS011;7139;48.114;11.442;2022-11-20T06:25:05;3.30;;;3.00;;
14121;SDS011;7139;48.114;11.442;2022-11-20T06:27:32;3.20;;;2.90;;
14121;SDS011;7139;48.114;11.442;2022-11-20T06:29:59;2.80;;;2.60;;
14121;SDS011;7139;48.114;11.442;2022-11-20T06:32:25;2.83;;;2.43;;
14121;SDS011;7139;48.114;11.442;2022-11-20T06:34:52;2.50;;;2.30;;
14121;SDS011;7139;48.114;11.442;2022-11-20T06:37:19;2.80;;;2.50;;
14121;SDS011;7139;48.114;11.442;2022-11-20T06:39:46;2.50;;;2.30;;
14121;SDS011;7139;48.114;11.442;2022-11-20T06:42:14;2.50;;;2.30;;
14121;SDS011;7139;48.114;11.442;2022-11-20T06:44:40;2.83;;;2.30;;
14121;SDS011;7139;48.114;11.442;2022-11-20T06:47:07;2.50;;;2.30;;
14121;SDS011;7139;48.114;11.442;2022-11-20T06:49:34;2.90;;;2.60;;
14121;SDS011;7139;48.114;11.442;2022-11-20T06:52:02;3.00;;;2.23;;
14121;SDS011;7139;48.114;11.442;2022-11-20T06:54:29;3.47;;;2.50;;
14121;SDS011;7139;48.114;11.442;2022-11-20T06:56:55;3.50;;;2.47;;
14121;SDS011;7139;48.114;11.442;2022-11-20T06:59:23;3.23;;;2.50;;
14121;SDS011;7139;48.114;11.442;2022-11-20T07:01:50;2.57;;;2.37;;
14121;SDS011;7139;48.114;11.442;2022-11-20T07:04:17;2.50;;;2.30;;
14121;SDS011;7139;48.114;11.442;2022-11-20T07:06:44;2.40;;;2.20;;
14121;SDS011;7139;48.114;11.442;2022-11-20T07:09:10;2.70;;;2.20;;
14121;SDS011;7139;48.114;11.442;2022-11-20T07:11:37;2.30;;;2.10;;
14121;SDS011;7139;48.114;11.442;2022-11-20T07:14:04;2.50;;;2.30;;
14121;SDS011;7139;48.114;11.442;2022-11-20T07:16:32;3.47;;;2.20;;
14121;SDS011;7139;48.114;11.442;2022-11-20T07:19:00;2.73;;;2.40;;
14121;SDS011;7139;48.114;11.442;2022-11-20T07:21:27;2.93;;;2.63;;
14121;SDS011;7139;48.114;11.442;2022-11-20T07:23:54;2.80;;;2.57;;
14121;SDS011;7139;48.114;11.442;2022-11-20T07:26:20;3.37;;;2.80;;
14121;SDS011;7139;48.114;11.442;2022-11-20T07:28:47;3.20;;;2.90;;
14121;SDS011;7139;48.114;11.442;2022-11-20T07:31:14;4.13;;;3.00;;
14121;SDS011;7139;48.114;11.442;2022-11-20T07:33:42;3.60;;;3.07;;
14121;SDS011;7139;48.114;11.442;2022-11-20T07:36:09;2.80;;;2.60;;
14121;SDS011;7139;48.114;11.442;2022-11-20T07:38:36;3.70;;;3.27;;
14121;SDS011;7139;48.114;11.442;2022-11-20T07:41:03;3.23;;;2.90;;
14121;SDS011;7139;48.114;11.442;2022-11-20T07:43:30;3.03;;;2.50;;
14121;SDS011;7139;48.114;11.442;2022-11-20T07:45:58;3.50;;;3.20;;
14121;SDS011;7139;48.114;11.442;2022-11-20T07:48:25;2.97;;;2.77;;
14121;SDS011;7139;48.114;11.442;2022-11-20T07:50:54;3.30;;;3.00;;
14121;SDS011;7139;48.114;11.442;2022-11-20T07:53:21;3.17;;;2.70;;
14121;SDS011;7139;48.114;11.442;2022-11-20T07:55:48;4.30;;;3.20;;
14121;SDS011;7139;48.114;11.442;2022-11-20T07:58:17;2.90;;;2.70;;
14121;SDS011;7139;48.114;11.442;2022-11-20T08:00:44;4.17;;;3.23;;
14121;SDS011;7139;48.114;11.442;2022-11-20T08:03:10;5.13;;;3.20;;
14121;SDS011;7139;48.114;11.442;2022-11-20T08:05:37;3.07;;;2.83;;
14121;SDS011;7139;48.114;11.442;2022-11-20T08:08:05;3.27;;;2.77;;
14121;SDS011;7139;48.114;11.442;2022-11-20T08:10:33;3.10;;;2.80;;
14121;SDS011;7139;48.114;11.442;2022-11-20T08:12:59;3.17;;;2.87;;
14121;SDS011;7139;48.114;11.442;2022-11-20T08:15:47;3.10;;;2.80;;
14121;SDS011;7139;48.114;11.442;2022-11-20T08:18:16;2.93;;;2.67;;
14121;SDS011;7139;48.114;11.442;2022-11-20T08:20:43;3.10;;;2.67;;
14121;SDS011;7139;48.114;11.442;2022-11-20T08:23:11;3.53;;;2.90;;
14121;SDS011;7139;48.114;11.442;2022-11-20T08:25:38;3.23;;;2.77;;
14121;SDS011;7139;48.114;11.442;2022-11-20T08:28:05;3.23;;;2.93;;
14121;SDS011;7139;48.114;11.442;2022-11-20T08:30:34;3.23;;;2.93;;
14121;SDS011;7139;48.114;11.442;2022-11-20T08:33:02;2.83;;;2.63;;
14121;SDS011;7139;48.114;11.442;2022-11-20T08:35:32;3.33;;;2.70;;
14121;SDS011;7139;48.114;11.442;2022-11-20T08:38:00;3.13;;;2.70;;
14121;SDS011;7139;48.114;11.442;2022-11-20T08:40:28;2.50;;;2.30;;
14121;SDS011;7139;48.114;11.442;2022-11-20T08:42:55;2.80;;;2.47;;
14121;SDS011;7139;48.114;11.442;2022-11-20T08:45:22;2.90;;;2.70;;
14121;SDS011;7139;48.114;11.442;2022-11-20T08:47:49;3.07;;;2.73;;
14121;SDS011;7139;48.114;11.442;2022-11-20T08:50:16;3.47;;;2.97;;
14121;SDS011;7139;48.114;11.442;2022-11-20T08:52:43;2.97;;;2.50;;
14121;SDS011;7139;48.114;11.442;2022-11-20T08:55:10;2.93;;;2.33;;
14121;SDS011;7139;48.114;11.442;2022-11-20T08:57:39;2.53;;;2.33;;
14121;SDS011;7139;48.114;11.442;2022-11-20T09:00:06;2.63;;;2.40;;
14121;SDS011;7139;48.114;11.442;2022-11-20T09:02:34;2.90;;;2.67;;
14121;SDS011;7139;48.114;11.442;2022-11-20T09:05:01;2.97;;;2.27;;
14121;SDS011;7139;48.114;11.442;2022-11-20T09:07:28;3.57;;;2.30;;
14121;SDS011;7139;48.114;11.442;2022-11-20T09:09:55;2.60;;;2.40;;
14121;SDS011;7139;48.114;11.442;2022-11-20T09:12:22;2.93;;;2.40;;
14121;SDS011;7139;48.114;11.442;2022-11-20T09:14:50;2.63;;;2.00;;
14121;SDS011;7139;48.114;11.442;2022-11-20T09:17:17;2.40;;;2.20;;
14121;SDS011;7139;48.114;11.442;2022-11-20T09:19:45;2.40;;;2.20;;
14121;SDS011;7139;48.114;11.442;2022-11-20T09:22:12;2.30;;;2.10;;
14121;SDS011;7139;48.114;11.442;2022-11-20T09:24:39;2.17;;;1.93;;
14121;SDS011;7139;48.114;11.442;2022-11-20T09:27:06;2.87;;;2.03;;
14121;SDS011;7139;48.114;11.442;2022-11-20T09:29:33;2.77;;;2.20;;
14121;SDS011;7139;48.114;11.442;2022-11-20T09:32:01;2.37;;;2.17;;
14121;SDS011;7139;48.114;11.442;2022-11-20T09:34:28;2.77;;;2.20;;
14121;SDS011;7139;48.114;11.442;2022-11-20T09:36:55;2.90;;;2.10;;
14121;SDS011;7139;48.114;11.442;2022-11-20T09:39:21;3.30;;;2.00;;
14121;SDS011;7139;48.114;11.442;2022-11-20T09:41:53;2.00;;;1.73;;
14121;SDS011;7139;48.114;11.442;2022-11-20T09:44:36;2.10;;;1.90;;
14121;SDS011;7139;48.114;11.442;2022-11-20T09:47:15;2.30;;;1.83;;
14121;SDS011;7139;48.114;11.442;2022-11-20T09:49:53;2.30;;;1.87;;
14121;SDS011;7139;48.114;11.442;2022-11-20T09:52:31;2.00;;;1.70;;
14121;SDS011;7139;48.114;11.442;2022-11-20T09:55:06;1.80;;;1.70;;
14121;SDS011;7139;48.114;11.442;2022-11-20T09:57:37;2.63;;;1.70;;
14121;SDS011;7139;48.114;11.442;2022-11-20T10:00:09;1.90;;;1.80;;
14121;SDS011;7139;48.114;11.442;2022-11-20T10:02:40;2.33;;;2.03;;
14121;SDS011;7139;48.114;11.442;2022-11-20T10:05:15;1.90;;;1.80;;
14121;SDS011;7139;48.114;11.442;2022-11-20T10:07:47;1.90;;;1.80;;
14121;SDS011;7139;48.114;11.442;2022-11-20T10:10:21;2.73;;;1.83;;
14121;SDS011;7139;48.114;11.442;2022-11-20T10:12:59;3.83;;;1.83;;
14121;SDS011;7139;48.114;11.442;2022-11-20T10:15:37;2.10;;;1.97;;
14121;SDS011;7139;48.114;11.442;2022-11-20T10:18:16;1.80;;;1.70;;
14121;SDS011;7139;48.114;11.442;2022-11-20T10:20:54;2.57;;;1.70;;
14121;SDS011;7139;48.114;11.442;2022-11-20T10:23:33;1.73;;;1.63;;
14121;SDS011;7139;48.114;11.442;2022-11-20T10:26:16;1.83;;;1.60;;
14121;SDS011;7139;48.114;11.442;2022-11-20T10:28:50;2.27;;;1.80;;
14121;SDS011;7139;48.114;11.442;2022-11-20T10:31:28;1.70;;;1.60;;
14121;SDS011;7139;48.114;11.442;2022-11-20T10:34:00;2.57;;;1.63;;
14121;SDS011;7139;48.114;11.442;2022-11-20T10:36:33;1.67;;;1.57;;
14121;SDS011;7139;48.114;11.442;2022-11-20T10:39:04;3.03;;;1.57;;
14121;SDS011;7139;48.114;11.442;2022-11-20T10:41:38;2.20;;;1.73;;
14121;SDS011;7139;48.114;11.442;2022-11-20T10:44:09;2.53;;;2.20;;
14121;SDS011;7139;48.114;11.442;2022-11-20T10:46:40;1.50;;;1.40;;
14121;SDS011;7139;48.114;11.442;2022-11-20T10:49:14;1.70;;;1.60;;
14121;SDS011;7139;48.114;11.442;2022-11-20T10:51:46;2.70;;;1.70;;
14121;SDS011;7139;48.114;11.442;2022-11-20T10:54:26;2.53;;;1.50;;
14121;SDS011;7139;48.114;11.442;2022-11-20T10:57:05;2.13;;;1.50;;
14121;SDS011;7139;48.114;11.442;2022-11-20T10:59:48;1.60;;;1.50;;
14121;SDS011;7139;48.114;11.442;2022-11-20T11:02:31;1.87;;;1.77;;
14121;SDS011;7139;48.114;11.442;2022-11-20T11:05:00;2.20;;;1.60;;
14121;SDS011;7139;48.114;11.442;2022-11-20T11:07:35;2.50;;;1.70;;
14121;SDS011;7139;48.114;11.442;2022-11-20T11:10:05;1.97;;;1.70;;
14121;SDS011;7139;48.114;11.442;2022-11-20T11:12:43;1.67;;;1.57;;
14121;SDS011;7139;48.114;11.442;2022-11-20T11:15:12;2.20;;;1.97;;
14121;SDS011;7139;48.114;11.442;2022-11-20T11:17:45;2.17;;;1.93;;
14121;SDS011;7139;48.114;11.442;2022-11-20T11:20:18;1.63;;;1.53;;
14121;SDS011;7139;48.114;11.442;2022-11-20T11:22:47;1.40;;;1.30;;
14121;SDS011;7139;48.114;11.442;2022-11-20T11:25:22;1.47;;;1.30;;
14121;SDS011;7139;48.114;11.442;2022-11-20T11:27:51;3.37;;;1.60;;
14121;SDS011;7139;48.114;11.442;2022-11-20T11:30:21;2.17;;;1.70;;
14121;SDS011;7139;48.114;11.442;2022-11-20T11:32:49;1.77;;;1.67;;
14121;SDS011;7139;48.114;11.442;2022-11-20T11:35:21;1.83;;;1.50;;
14121;SDS011;7139;48.114;11.442;2022-11-20T11:37:50;2.30;;;1.57;;
14121;SDS011;7139;48.114;11.442;2022-11-20T11:40:20;2.87;;;1.90;;
14121;SDS011;7139;48.114;11.442;2022-11-20T11:42:50;2.70;;;1.70;;
14121;SDS011;7139;48.114;11.442;2022-11-20T11:45:22;1.80;;;1.33;;
14121;SDS011;7139;48.114;11.442;2022-11-20T11:47:49;2.23;;;2.00;;
14121;SDS011;7139;48.114;11.442;2022-11-20T11:50:18;2.00;;;1.80;;
14121;SDS011;7139;48.114;11.442;2022-11-20T11:52:51;1.67;;;1.57;;
14121;SDS011;7139;48.114;11.442;2022-11-20T11:55:26;2.50;;;1.90;;
14121;SDS011;7139;48.114;11.442;2022-11-20T11:57:59;2.03;;;1.63;;
14121;SDS011;7139;48.114;11.442;2022-11-20T12:00:34;2.00;;;1.67;;
14121;SDS011;7139;48.114;11.442;2022-11-20T12:03:05;2.00;;;1.77;;
14121;SDS011;7139;48.114;11.442;2022-11-20T12:05:42;2.10;;;1.90;;
14121;SDS011;7139;48.114;11.442;2022-11-20T12:08:13;1.97;;;1.67;;
14121;SDS011;7139;48.114;11.442;2022-11-20T12:10:45;1.80;;;1.70;;
14121;SDS011;7139;48.114;11.442;2022-11-20T12:13:26;2.80;;;1.70;;
14121;SDS011;7139;48.114;11.442;2022-11-20T12:16:02;2.07;;;1.70;;
14121;SDS011;7139;48.114;11.442;2022-11-20T12:18:30;1.90;;;1.80;;
14121;SDS011;7139;48.114;11.442;2022-11-20T12:21:05;1.97;;;1.87;;
14121;SDS011;7139;48.114;11.442;2022-11-20T12:23:52;1.83;;;1.73;;
14121;SDS011;7139;48.114;11.442;2022-11-20T12:26:41;1.90;;;1.80;;
14121;SDS011;7139;48.114;11.442;2022-11-20T12:29:17;3.23;;;2.20;;
14121;SDS011;7139;48.114;11.442;2022-11-20T12:32:01;2.10;;;1.90;;
14121;SDS011;7139;48.114;11.442;2022-11-20T12:34:52;1.73;;;1.30;;
14121;SDS011;7139;48.114;11.442;2022-11-20T12:37:33;2.13;;;1.70;;
14121;SDS011;7139;48.114;11.442;2022-11-20T12:40:09;1.40;;;1.30;;
14121;SDS011;7139;48.114;11.442;2022-11-20T12:42:55;1.70;;;1.60;;
14121;SDS011;7139;48.114;11.442;2022-11-20T12:45:53;2.53;;;1.80;;
14121;SDS011;7139;48.114;11.442;2022-11-20T12:54:34;2.27;;;1.70;;
14121;SDS011;7139;48.114;11.442;2022-11-20T12:57:14;1.93;;;1.80;;
14121;SDS011;7139;48.114;11.442;2022-11-20T12:59:51;2.07;;;1.97;;
14121;SDS011;7139;48.114;11.442;2022-11-20T13:02:38;1.70;;;1.60;;
14121;SDS011;7139;48.114;11.442;2022-11-20T13:05:35;1.90;;;1.80;;
14121;SDS011;7139;48.114;11.442;2022-11-20T13:08:07;1.97;;;1.80;;
14121;SDS011;7139;48.114;11.442;2022-11-20T13:10:45;2.17;;;1.97;;
14121;SDS011;7139;48.114;11.442;2022-11-20T13:13:18;2.90;;;2.60;;
14121;SDS011;7139;48.114;11.442;2022-11-20T13:15:50;3.47;;;2.60;;
14121;SDS011;7139;48.114;11.442;2022-11-20T13:18:22;2.40;;;2.20;;
14121;SDS011;7139;48.114;11.442;2022-11-20T13:20:49;2.43;;;2.23;;
14121;SDS011;7139;48.114;11.442;2022-11-20T13:23:23;2.60;;;2.40;;
14121;SDS011;7139;48.114;11.442;2022-11-20T13:26:03;3.07;;;2.40;;
14121;SDS011;7139;48.114;11.442;2022-11-20T13:28:31;2.37;;;2.17;;
14121;SDS011;7139;48.114;11.442;2022-11-20T13:30:58;2.30;;;2.10;;
14121;SDS011;7139;48.114;11.442;2022-11-20T13:33:27;2.20;;;2.00;;
14121;SDS011;7139;48.114;11.442;2022-11-20T13:35:57;2.47;;;2.27;;
14121;SDS011;7139;48.114;11.442;2022-11-20T13:38:25;2.37;;;2.17;;
14121;SDS011;7139;48.114;11.442;2022-11-20T13:40:53;3.00;;;2.27;;
14121;SDS011;7139;48.114;11.442;2022-11-20T13:43:32;3.20;;;2.20;;
14121;SDS011;7139;48.114;11.442;2022-11-20T13:46:02;2.30;;;2.10;;
14121;SDS011;7139;48.114;11.442;2022-11-20T13:48:31;2.50;;;2.30;;
14121;SDS011;7139;48.114;11.442;2022-11-20T13:51:03;2.57;;;2.37;;
14121;SDS011;7139;48.114;11.442;2022-11-20T13:53:52;2.47;;;2.27;;
14121;SDS011;7139;48.114;11.442;2022-11-20T13:56:42;3.67;;;2.20;;
14121;SDS011;7139;48.114;11.442;2022-11-20T13:59:20;2.73;;;2.53;;
14121;SDS011;7139;48.114;11.442;2022-11-20T14:01:58;3.00;;;2.30;;
14121;SDS011;7139;48.114;11.442;2022-11-20T14:04:28;2.90;;;2.07;;
14121;SDS011;7139;48.114;11.442;2022-11-20T14:06:58;3.60;;;2.37;;
14121;SDS011;7139;48.114;11.442;2022-11-20T14:09:26;2.50;;;2.27;;
14121;SDS011;7139;48.114;11.442;2022-11-20T14:11:54;2.30;;;1.90;;
14121;SDS011;7139;48.114;11.442;2022-11-20T14:14:23;2.37;;;2.17;;
14121;SDS011;7139;48.114;11.442;2022-11-20T14:16:51;3.00;;;2.57;;
14121;SDS011;7139;48.114;11.442;2022-11-20T14:19:25;3.10;;;2.03;;
14121;SDS011;7139;48.114;11.442;2022-11-20T14:22:06;2.30;;;2.10;;
14121;SDS011;7139;48.114;11.442;2022-11-20T14:24:35;2.20;;;2.00;;
14121;SDS011;7139;48.114;11.442;2022-11-20T14:27:01;3.07;;;2.03;;
14121;SDS011;7139;48.114;11.442;2022-11-20T14:29:33;3.37;;;2.10;;
14121;SDS011;7139;48.114;11.442;2022-11-20T14:32:01;2.20;;;1.90;;
14121;SDS011;7139;48.114;11.442;2022-11-20T14:34:30;2.90;;;1.97;;
14121;SDS011;7139;48.114;11.442;2022-11-20T14:36:59;1.87;;;1.77;;
14121;SDS011;7139;48.114;11.442;2022-11-20T14:39:29;1.87;;;1.70;;
14121;SDS011;7139;48.114;11.442;2022-11-20T14:41:58;1.60;;;1.50;;
14121;SDS011;7139;48.114;11.442;2022-11-20T14:44:26;1.93;;;1.43;;
14121;SDS011;7139;48.114;11.442;2022-11-20T14:46:57;1.37;;;1.20;;
14121;SDS011;7139;48.114;11.442;2022-11-20T14:49:26;1.40;;;1.20;;
14121;SDS011;7139;48.114;11.442;2022-11-20T14:51:58;1.50;;;1.30;;
14121;SDS011;7139;48.114;11.442;2022-11-20T14:54:26;1.47;;;1.03;;
14121;SDS011;7139;48.114;11.442;2022-11-20T14:56:54;1.00;;;0.90;;
14121;SDS011;7139;48.114;11.442;2022-11-20T14:59:22;1.90;;;1.20;;
14121;SDS011;7139;48.114;11.442;2022-11-20T15:01:54;1.80;;;1.40;;
14121;SDS011;7139;48.114;11.442;2022-11-20T15:04:24;2.60;;;1.40;;
14121;SDS011;7139;48.114;11.442;2022-11-20T15:06:53;1.60;;;1.40;;
14121;SDS011;7139;48.114;11.442;2022-11-20T15:09:21;1.67;;;1.57;;
14121;SDS011;7139;48.114;11.442;2022-11-20T15:11:52;2.37;;;1.60;;